Terminal Aerodrome Forecast
Issued by NWS

Current Version | Previous Version | Graphics & Text | Print | Product List | Glossary On
Versions: 1 2 3 4 5 6 7 8 9 10 11 12 13 14 15 16 17 18
000
FTUS41 KRNK 180901 AAA
TAFLWB
TAF AMD
KLWB 180901Z 1809/1906 00000KT P6SM BKN050
     FM181000 00000KT 2SM BR SCT005
     FM181100 00000KT 1/4SM FG BKN001
     FM181200 19004KT P6SM SCT050
     FM190000 00000KT P6SM SCT250=

USA.gov is the U.S. government's official web portal to all federal, state and local government web resources and services.